Time;durP1;ratioP1;P1;durP2;ratioP2;P2;SDS_P1;SDS_P2;PMS_P1;PMS_P2;Temp;Humidity;BMP_temperature;BMP_pressure;BME280_temperature;BME280_humidity;BME280_pressure;Samples;Min_cycle;Max_cycle;Signal;HPM_P1;HPM_P2
2023/07/26 00:04:58;;;;;;;9.50;2.93;;;15.50;1.00;;;;;;5064755;28;20386;-76
2023/07/26 00:07:23;;;;;;;2.77;2.20;;;15.40;1.00;;;;;;5076662;28;20436;-75
2023/07/26 00:09:53;;;;;;;3.63;2.20;;;15.50;1.00;;;;;;5073560;28;20241;-75
2023/07/26 00:12:24;;;;;;;9.50;2.60;;;15.50;1.00;;;;;;5059852;28;20203;-76
2023/07/26 00:14:53;;;;;;;2.63;2.40;;;15.60;1.00;;;;;;5071434;28;20412;-76
2023/07/26 00:17:19;;;;;;;7.70;2.70;;;15.60;1.00;;;;;;5075577;28;20416;-76
2023/07/26 00:23:06;;;;;;;5.63;2.37;;;15.60;1.00;;;;;;5057635;28;20281;-86
2023/07/26 00:28:54;;;;;;;7.50;3.03;;;15.60;1.00;;;;;;5073357;28;20229;-86
2023/07/26 00:31:35;;;;;;;4.30;3.03;;;15.60;1.00;;;;;;5077181;28;20529;-85
2023/07/26 00:34:11;;;;;;;7.73;2.60;;;15.70;1.00;;;;;;5072549;28;20627;-84
2023/07/26 00:36:36;;;;;;;2.90;2.40;;;15.60;1.00;;;;;;5068484;28;20989;-76
2023/07/26 00:39:05;;;;;;;3.93;2.10;;;15.50;1.00;;;;;;5065473;28;20414;-75
2023/07/26 00:42:05;;;;;;;5.50;2.40;;;15.60;1.00;;;;;;5076467;28;20202;-75
2023/07/26 00:44:30;;;;;;;4.90;2.27;;;15.60;1.00;;;;;;5067275;28;20454;-76
2023/07/26 00:46:59;;;;;;;15.80;2.37;;;15.60;1.00;;;;;;5074309;28;20400;-76
2023/07/26 00:49:35;;;;;;;9.27;2.50;;;15.60;1.00;;;;;;5067626;28;20233;-75
2023/07/26 00:52:12;;;;;;;11.17;2.63;;;15.60;1.00;;;;;;5075946;28;20425;-76
2023/07/26 00:54:41;;;;;;;4.53;2.47;;;15.60;1.00;;;;;;5076208;28;20410;-76
2023/07/26 00:57:11;;;;;;;2.87;2.53;;;15.70;1.00;;;;;;5063320;28;20488;-76
2023/07/26 00:59:41;;;;;;;6.30;2.33;;;15.70;1.00;;;;;;5066972;28;20425;-76
2023/07/26 01:02:11;;;;;;;5.90;2.70;;;15.70;1.00;;;;;;5066352;28;20734;-76
2023/07/26 01:04:47;;;;;;;10.53;3.63;;;15.70;1.00;;;;;;5076111;28;20403;-76
2023/07/26 01:07:32;;;;;;;5.87;2.40;;;15.80;1.00;;;;;;5074460;28;20445;-76
2023/07/26 01:10:13;;;;;;;3.43;2.50;;;15.70;1.00;;;;;;5074503;28;22399;-76
2023/07/26 01:12:59;;;;;;;3.90;2.97;;;15.70;1.00;;;;;;5075696;28;20399;-76
2023/07/26 01:15:34;;;;;;;4.57;2.60;;;15.70;1.00;;;;;;5061525;28;20968;-76
2023/07/26 01:18:22;;;;;;;2.80;2.23;;;15.60;1.00;;;;;;5070331;28;20432;-76
2023/07/26 01:20:48;;;;;;;6.70;2.57;;;15.60;1.00;;;;;;5071551;28;20534;-76
2023/07/26 01:23:23;;;;;;;4.33;2.73;;;15.60;1.00;;;;;;5069333;28;20403;-76
2023/07/26 01:25:53;;;;;;;2.87;2.67;;;15.50;1.00;;;;;;5071749;28;20584;-76
2023/07/26 01:28:19;;;;;;;4.07;2.20;;;15.50;1.00;;;;;;5075406;28;20384;-76
2023/07/26 01:30:56;;;;;;;5.43;2.67;;;15.60;1.00;;;;;;5074036;28;20510;-76
2023/07/26 01:33:41;;;;;;;3.27;1.90;;;15.60;1.00;;;;;;5075105;28;20175;-76
2023/07/26 01:36:07;;;;;;;5.80;2.40;;;15.50;1.00;;;;;;5060698;28;20503;-76
2023/07/26 01:38:35;;;;;;;5.07;2.27;;;15.50;1.00;;;;;;5075203;28;20438;-76
2023/07/26 01:41:05;;;;;;;8.57;2.50;;;15.50;1.00;;;;;;5074928;28;20429;-76
2023/07/26 01:43:36;;;;;;;5.77;2.60;;;15.50;1.00;;;;;;5059192;28;20381;-76
2023/07/26 01:46:05;;;;;;;4.77;2.47;;;15.50;1.00;;;;;;5065029;28;20388;-77
2023/07/26 01:48:35;;;;;;;2.60;2.20;;;15.50;1.00;;;;;;5061207;28;20931;-76
2023/07/26 01:51:28;;;;;;;12.73;2.97;;;15.50;1.00;;;;;;5075391;28;20425;-86
2023/07/26 01:54:28;;;;;;;7.30;2.73;;;15.50;1.00;;;;;;5061630;28;20530;-86
2023/07/26 01:57:46;;;;;;;3.63;2.13;;;15.40;1.00;;;;;;5067681;28;20411;-86
2023/07/26 02:00:12;;;;;;;7.90;2.50;;;15.40;1.00;;;;;;5070817;28;20408;-86
2023/07/26 02:06:11;;;;;;;5.63;2.40;;;15.40;1.00;;;;;;5069030;28;20193;-75
2023/07/26 02:08:41;;;;;;;3.13;2.33;;;15.20;1.00;;;;;;5073755;28;20416;-76
2023/07/26 02:11:07;;;;;;;12.20;2.40;;;15.20;1.00;;;;;;5070857;28;20525;-76
2023/07/26 02:13:33;;;;;;;7.50;2.63;;;15.10;1.00;;;;;;5073275;28;20471;-76
2023/07/26 02:15:58;;;;;;;9.03;2.43;;;14.90;1.00;;;;;;5074302;28;20182;-76
2023/07/26 02:18:25;;;;;;;13.57;2.80;;;14.90;1.00;;;;;;5074273;28;20424;-76
2023/07/26 02:24:58;;;;;;;4.73;2.53;;;14.60;1.00;;;;;;5073332;28;20466;-86
2023/07/26 02:27:29;;;;;;;9.43;2.80;;;14.50;1.00;;;;;;5073023;28;20404;-86
2023/07/26 02:33:58;;;;;;;6.40;2.47;;;14.20;1.00;;;;;;5073863;28;20414;-86
2023/07/26 02:39:59;;;;;;;6.93;3.07;;;13.80;1.00;;;;;;5065993;28;20468;-86
2023/07/26 02:45:47;;;;;;;12.17;3.00;;;13.50;1.00;;;;;;5054809;28;20345;-86
2023/07/26 02:51:41;;;;;;;8.27;3.33;;;13.40;1.00;;;;;;5071598;28;21003;-85
2023/07/26 02:54:17;;;;;;;8.53;3.40;;;14.20;1.00;;;;;;5063262;28;20425;-86
2023/07/26 03:00:05;;;;;;;3.07;2.87;;;13.20;1.00;;;;;;5073576;28;20359;-86
2023/07/26 03:06:45;;;;;;;5.93;3.20;;;13.10;1.00;;;;;;5060326;28;20828;-77
2023/07/26 03:09:11;;;;;;;4.63;3.30;;;13.00;1.00;;;;;;5059449;28;20416;-76
2023/07/26 03:12:05;;;;;;;5.53;3.27;;;13.00;1.00;;;;;;5080228;28;20449;-77
2023/07/26 03:14:40;;;;;;;7.97;3.67;;;13.00;1.00;;;;;;5073643;28;20650;-76
2023/07/26 03:17:17;;;;;;;6.33;3.33;;;12.90;1.00;;;;;;5073123;28;20402;-77
2023/07/26 03:19:47;;;;;;;11.60;4.03;;;13.00;1.00;;;;;;5072792;28;20504;-76
2023/07/26 03:28:56;;;;;;;6.13;3.43;;;12.90;1.00;;;;;;5074034;28;20411;-86
2023/07/26 03:31:35;;;;;;;4.80;3.30;;;12.90;1.00;;;;;;5072763;28;20428;-86
2023/07/26 03:34:00;;;;;;;4.27;3.50;;;12.90;1.00;;;;;;5073869;28;20646;-87
2023/07/26 03:37:16;;;;;;;4.20;3.30;;;12.90;1.00;;;;;;5071330;28;20396;-83
2023/07/26 03:39:42;;;;;;;6.17;3.17;;;12.90;1.00;;;;;;5068141;28;20174;-82
2023/07/26 03:46:17;;;;;;;4.90;3.40;;;13.00;1.00;;;;;;5063927;28;20720;-83
2023/07/26 03:49:11;;;;;;;5.53;3.83;;;13.00;1.00;;;;;;5073550;28;20409;-83
2023/07/26 03:54:58;;;;;;;8.60;3.90;;;13.00;1.00;;;;;;5062089;28;20457;-85
2023/07/26 04:04:46;;;;;;;8.27;3.63;;;13.20;1.00;;;;;;5070634;28;20747;-85
2023/07/26 04:07:47;;;;;;;8.60;3.60;;;13.30;1.00;;;;;;5055228;28;20449;-83
2023/07/26 04:13:34;;;;;;;4.00;3.70;;;13.40;1.00;;;;;;5071529;28;20836;-85
2023/07/26 04:16:00;;;;;;;11.90;3.80;;;;;;;;;;5078647;28;20408;-85
2023/07/26 04:19:04;;;;;;;9.60;3.00;;;13.40;1.00;;;;;;5071140;28;20401;-85
2023/07/26 04:21:47;;;;;;;10.60;3.13;;;13.60;1.00;;;;;;5070431;28;20403;-83
2023/07/26 04:24:53;;;;;;;6.30;3.83;;;13.60;1.00;;;;;;5063054;28;20803;-84
2023/07/26 04:27:47;;;;;;;3.83;3.30;;;13.70;1.00;;;;;;5061424;28;20420;-84
2023/07/26 04:36:56;;;;;;;5.73;3.70;;;13.80;1.00;;;;;;5064159;28;20455;-86
2023/07/26 04:46:28;;;;;;;4.23;2.53;;;13.90;1.00;;;;;;5072166;28;20903;-85
2023/07/26 04:48:59;;;;;;;3.33;2.93;;;14.00;1.00;;;;;;5061764;28;20430;-86
2023/07/26 04:51:47;;;;;;;8.07;2.90;;;14.20;1.00;;;;;;5075997;28;20442;-85
2023/07/26 04:57:38;;;;;;;2.93;2.70;;;14.10;1.00;;;;;;5075273;28;20882;-85
2023/07/26 05:00:23;;;;;;;6.00;2.87;;;14.10;1.00;;;;;;5074096;28;20439;-85
2023/07/26 05:03:22;;;;;;;5.50;2.30;;;14.40;1.00;;;;;;5064532;28;20520;-84
2023/07/26 05:06:30;;;;;;;2.50;2.40;;;14.10;1.00;;;;;;5075070;28;20407;-84
2023/07/26 05:08:56;;;;;;;7.40;3.00;;;14.20;1.00;;;;;;5072939;28;20452;-85
2023/07/26 05:11:22;;;;;;;3.57;2.40;;;14.20;1.00;;;;;;5069509;28;20452;-85
2023/07/26 05:13:49;;;;;;;2.80;2.37;;;14.50;1.00;;;;;;5074967;28;20421;-85
2023/07/26 05:16:29;;;;;;;6.53;2.70;;;14.20;1.00;;;;;;5067887;28;20473;-85
2023/07/26 05:19:00;;;;;;;5.57;2.93;;;14.30;1.00;;;;;;5068894;28;20433;-85
2023/07/26 05:21:29;;;;;;;4.17;2.53;;;14.30;1.00;;;;;;5068322;28;20985;-87
2023/07/26 05:23:59;;;;;;;3.30;3.00;;;14.40;1.00;;;;;;5075570;28;20850;-85
2023/07/26 05:26:35;;;;;;;5.37;3.20;;;14.50;1.00;;;;;;5073220;28;20448;-85
2023/07/26 05:29:46;;;;;;;7.30;3.23;;;14.50;1.00;;;;;;5079638;28;20400;-86
2023/07/26 05:32:12;;;;;;;3.10;2.80;;;14.60;1.00;;;;;;5070826;28;20444;-85
2023/07/26 05:34:38;;;;;;;4.50;2.70;;;14.60;1.00;;;;;;5075528;28;20505;-87
2023/07/26 05:37:05;;;;;;;9.03;2.63;;;14.60;1.00;;;;;;5074920;28;20441;-84
2023/07/26 05:39:41;;;;;;;2.27;2.17;;;14.70;1.00;;;;;;5058723;28;20198;-86
2023/07/26 05:42:11;;;;;;;4.33;2.80;;;14.70;1.00;;;;;;5062935;28;20400;-85
2023/07/26 05:44:47;;;;;;;7.43;2.77;;;14.70;1.00;;;;;;5073622;28;20404;-87
2023/07/26 05:47:58;;;;;;;7.83;2.80;;;14.60;1.00;;;;;;5061470;28;20409;-87
2023/07/26 05:50:29;;;;;;;6.70;2.73;;;14.70;1.00;;;;;;5062733;28;20420;-87
2023/07/26 05:52:55;;;;;;;16.40;3.00;;;14.80;1.00;;;;;;5057992;28;20796;-85
2023/07/26 05:55:58;;;;;;;3.90;2.37;;;15.00;1.00;;;;;;5066062;28;20449;-84
2023/07/26 05:58:43;;;;;;;4.27;2.20;;;15.00;1.00;;;;;;5064941;28;20181;-85
2023/07/26 06:01:37;;;;;;;4.67;2.87;;;15.10;1.00;;;;;;5068917;28;20401;-84
2023/07/26 06:04:03;;;;;;;3.43;2.40;;;15.10;1.00;;;;;;5068456;28;20396;-85
2023/07/26 06:06:46;;;;;;;6.43;2.30;;;;;;;;;;5067416;28;20387;-85
2023/07/26 06:09:58;;;;;;;4.67;2.40;;;15.10;1.00;;;;;;5063263;28;20424;-85
2023/07/26 06:12:41;;;;;;;4.00;3.07;;;15.20;1.00;;;;;;5070381;28;20437;-84
2023/07/26 06:15:07;;;;;;;6.13;2.47;;;15.10;1.00;;;;;;5073280;28;20405;-85
2023/07/26 06:18:11;;;;;;;4.50;2.60;;;15.00;1.00;;;;;;5087133;28;20388;-85
2023/07/26 06:20:47;;;;;;;3.80;2.40;;;14.80;1.00;;;;;;5067370;28;20412;-85
2023/07/26 06:23:17;;;;;;;4.17;2.73;;;14.80;1.00;;;;;;5080605;28;20420;-86
2023/07/26 06:25:59;;;;;;;7.20;2.20;;;15.00;1.00;;;;;;5074066;28;20395;-86
2023/07/26 06:28:29;;;;;;;5.30;2.70;;;15.00;1.00;;;;;;5077220;28;20421;-86
2023/07/26 06:30:56;;;;;;;29.07;3.10;;;15.10;1.00;;;;;;5067223;28;20974;-86
2023/07/26 06:33:21;;;;;;;8.20;2.60;;;15.10;1.00;;;;;;5069827;28;20406;-86
2023/07/26 06:35:47;;;;;;;3.30;2.63;;;15.30;1.00;;;;;;5073958;28;20416;-86
2023/07/26 06:38:13;;;;;;;9.80;2.93;;;15.30;1.00;;;;;;5062209;28;20188;-86
2023/07/26 06:40:41;;;;;;;12.80;3.00;;;15.30;1.00;;;;;;5064024;28;20197;-86
2023/07/26 06:43:07;;;;;;;5.70;2.13;;;15.40;1.00;;;;;;5066064;28;20418;-87
2023/07/26 06:45:33;;;;;;;6.00;2.80;;;15.40;1.00;;;;;;5063280;28;20975;-86
2023/07/26 06:47:59;;;;;;;9.87;3.60;;;15.40;1.00;;;;;;5079296;28;20408;-86
2023/07/26 06:50:24;;;;;;;8.60;4.50;;;15.50;1.00;;;;;;5061897;28;20440;-86
2023/07/26 06:52:50;;;;;;;5.43;3.40;;;15.40;1.00;;;;;;5070469;28;20210;-86
2023/07/26 06:55:16;;;;;;;8.93;3.83;;;15.40;1.00;;;;;;5063646;28;20184;-85
2023/07/26 06:57:42;;;;;;;7.10;3.60;;;15.40;1.00;;;;;;5076140;28;20171;-85
2023/07/26 07:00:12;;;;;;;8.27;3.50;;;15.50;1.00;;;;;;5061628;28;20188;-85
2023/07/26 07:02:41;;;;;;;3.70;3.40;;;15.60;1.00;;;;;;5065993;28;20224;-85
2023/07/26 07:05:07;;;;;;;4.43;3.20;;;15.80;1.00;;;;;;5070980;28;20404;-85
2023/07/26 07:07:58;;;;;;;6.43;3.37;;;15.80;1.00;;;;;;5064992;28;20412;-85
2023/07/26 07:10:29;;;;;;;4.53;2.80;;;15.90;1.00;;;;;;5069723;28;20449;-85
2023/07/26 07:13:40;;;;;;;4.53;3.17;;;16.10;1.00;;;;;;5064707;28;20393;-85
2023/07/26 07:16:29;;;;;;;7.07;3.30;;;16.60;1.00;;;;;;5061954;28;20380;-85
2023/07/26 07:19:41;;;;;;;4.23;3.27;;;16.60;1.00;;;;;;5076139;28;20397;-86
2023/07/26 07:22:18;;;;;;;3.90;3.50;;;16.80;1.00;;;;;;5072991;28;20485;-86
2023/07/26 07:24:53;;;;;;;3.23;2.90;;;16.90;1.00;;;;;;5072821;28;20418;-86
2023/07/26 07:27:40;;;;;;;7.13;2.90;;;16.90;1.00;;;;;;5060295;28;20446;-86
2023/07/26 07:30:58;;;;;;;6.30;2.70;;;17.00;1.00;;;;;;5071626;28;20462;-85
2023/07/26 07:36:47;;;;;;;3.00;2.70;;;17.40;1.00;;;;;;5060363;28;20426;-85
2023/07/26 07:39:58;;;;;;;5.03;2.80;;;17.80;1.00;;;;;;5070120;28;20467;-87
2023/07/26 07:42:59;;;;;;;3.67;2.70;;;17.80;1.00;;;;;;5061305;28;20427;-86
2023/07/26 07:45:53;;;;;;;7.60;3.13;;;18.00;1.00;;;;;;5059355;28;20433;-87
2023/07/26 07:48:19;;;;;;;4.83;2.27;;;18.10;1.00;;;;;;5059401;28;20446;-86
2023/07/26 07:54:06;;;;;;;4.47;2.77;;;18.10;1.00;;;;;;5053703;28;20483;-85
2023/07/26 07:56:41;;;;;;;2.90;2.70;;;18.30;1.00;;;;;;5069812;28;20420;-85
2023/07/26 07:59:29;;;;;;;5.47;3.10;;;18.30;1.00;;;;;;5071809;28;20181;-86
2023/07/26 08:02:29;;;;;;;4.33;2.80;;;18.20;1.00;;;;;;5066986;28;20427;-86
2023/07/26 08:05:47;;;;;;;3.70;2.90;;;18.20;1.00;;;;;;5059402;28;20412;-86
2023/07/26 08:11:34;;;;;;;7.10;3.27;;;18.90;1.00;;;;;;5067096;28;20511;-86
2023/07/26 08:14:29;;;;;;;12.87;3.20;;;19.20;1.00;;;;;;5069890;28;20948;-87
2023/07/26 08:17:29;;;;;;;6.13;3.27;;;19.40;1.00;;;;;;5093512;28;20194;-86
2023/07/26 08:20:16;;;;;;;5.80;4.00;;;19.40;1.00;;;;;;5079021;28;20428;-87
2023/07/26 08:22:59;;;;;;;4.77;3.10;;;19.70;1.00;;;;;;5057569;28;20421;-87
2023/07/26 08:26:02;;;;;;;5.63;3.60;;;19.90;1.00;;;;;;5069706;28;20411;-83
2023/07/26 08:28:29;;;;;;;3.30;3.00;;;20.20;1.00;;;;;;5069423;28;20428;-91
2023/07/26 08:34:29;;;;;;;6.63;3.80;;;20.30;1.00;;;;;;5059631;28;20393;-93
2023/07/26 08:36:59;;;;;;;6.40;3.43;;;20.10;1.00;;;;;;5072547;28;20815;-87
2023/07/26 08:39:29;;;;;;;4.47;3.00;;;20.20;1.00;;;;;;5076969;28;20444;-84
2023/07/26 08:42:29;;;;;;;6.90;3.60;;;20.30;1.00;;;;;;5078582;28;20964;-87
2023/07/26 08:45:29;;;;;;;6.73;2.73;;;20.30;1.00;;;;;;5066444;28;20430;-87
2023/07/26 08:48:29;;;;;;;7.60;3.10;;;20.30;1.00;;;;;;5069893;28;20429;-88
2023/07/26 08:51:29;;;;;;;5.00;2.60;;;20.20;1.00;;;;;;5065036;28;20462;-89
2023/07/26 08:53:59;;;;;;;4.80;2.60;;;20.40;1.00;;;;;;5062156;28;20415;-89
2023/07/26 08:56:29;;;;;;;3.80;2.50;;;20.70;1.00;;;;;;5073901;28;20606;-91
2023/07/26 08:59:29;;;;;;;5.80;2.50;;;20.80;1.00;;;;;;5065431;28;20399;-92
2023/07/26 09:02:29;;;;;;;5.73;2.30;;;20.60;1.00;;;;;;5055581;28;20423;-92
2023/07/26 09:05:29;;;;;;;5.43;2.00;;;20.90;1.00;;;;;;5063024;28;20426;-94
2023/07/26 09:07:59;;;;;;;3.07;2.40;;;21.10;1.00;;;;;;5057824;28;20439;-91
2023/07/26 09:10:31;;;;;;;5.20;3.07;;;21.00;1.00;;;;;;5065726;28;20550;-92
2023/07/26 09:13:29;;;;;;;3.17;2.87;;;20.90;1.00;;;;;;5073548;28;20487;-91
2023/07/26 09:16:06;;;;;;;3.67;2.47;;;21.20;1.00;;;;;;5058831;28;20419;-92
2023/07/26 09:19:08;;;;;;;2.90;2.07;;;;;;;;;;5070349;28;20946;-92
2023/07/26 09:24:59;;;;;;;4.93;2.77;;;;;;;;;;5014780;28;20433;-92
2023/07/26 09:28:11;;;;;;;6.23;2.60;;;21.40;1.00;;;;;;5014894;28;21070;-92
2023/07/26 09:30:39;;;;;;;17.13;2.23;;;21.50;1.00;;;;;;5014414;28;20496;-91
2023/07/26 09:33:53;;;;;;;9.07;3.00;;;21.00;1.00;;;;;;4998001;28;20438;-91
2023/07/26 09:36:59;;;;;;;4.57;2.60;;;21.20;1.00;;;;;;4983978;28;20427;-92
2023/07/26 09:39:32;;;;;;;6.33;2.37;;;;;;;;;;5002267;28;20520;-92
2023/07/26 09:42:34;;;;;;;2.10;1.90;;;21.40;1.00;;;;;;4995304;28;20456;-92
2023/07/26 09:45:21;;;;;;;3.00;1.80;;;;;;;;;;4998184;28;20425;-91
2023/07/26 09:48:07;;;;;;;5.80;2.20;;;21.60;1.00;;;;;;5013546;28;20464;-91
2023/07/26 09:50:53;;;;;;;2.97;2.03;;;;;;;;;;4997883;28;20561;-91
2023/07/26 09:53:32;;;;;;;2.30;2.10;;;21.30;1.00;;;;;;5014691;28;20422;-91
2023/07/26 09:55:58;;;;;;;4.97;2.50;;;;;;;;;;5039621;28;20420;-89
2023/07/26 09:58:59;;;;;;;2.33;1.87;;;21.00;1.00;;;;;;5075833;28;20477;-89
2023/07/26 10:01:30;;;;;;;2.00;1.80;;;21.10;1.00;;;;;;5084415;28;21008;-89
2023/07/26 10:04:04;;;;;;;3.43;2.30;;;21.20;1.00;;;;;;5073213;28;20526;-89
2023/07/26 10:06:43;;;;;;;8.40;3.03;;;21.10;1.00;;;;;;5070217;28;20522;-88
2023/07/26 10:09:32;;;;;;;3.13;2.67;;;21.40;1.00;;;;;;5060284;28;20443;-88
2023/07/26 10:12:02;;;;;;;2.93;1.93;;;21.30;1.00;;;;;;5066166;28;20566;-88
2023/07/26 10:14:31;;;;;;;3.80;1.80;;;21.40;1.00;;;;;;5071440;28;21018;-88
2023/07/26 10:17:29;;;;;;;6.90;2.27;;;21.60;1.00;;;;;;5068432;28;20846;-89
2023/07/26 10:19:55;;;;;;;2.40;2.03;;;21.90;1.00;;;;;;5073209;28;20458;-89
2023/07/26 10:22:29;;;;;;;1.77;1.67;;;21.90;1.00;;;;;;5066780;28;20433;-89
2023/07/26 10:24:59;;;;;;;1.80;1.70;;;21.90;1.00;;;;;;5081006;28;20424;-89
2023/07/26 10:27:29;;;;;;;2.07;1.90;;;22.10;1.00;;;;;;5073552;28;20939;-87
2023/07/26 10:29:59;;;;;;;5.40;2.50;;;22.00;1.00;;;;;;5068029;28;20414;-88
2023/07/26 10:32:59;;;;;;;4.80;2.03;;;22.00;1.00;;;;;;5073738;28;20527;-88
2023/07/26 10:36:02;;;;;;;3.47;1.90;;;21.70;1.00;;;;;;5073093;28;20446;-88
2023/07/26 10:39:02;;;;;;;9.40;2.10;;;21.80;1.00;;;;;;5065940;28;20488;-88
2023/07/26 10:41:29;;;;;;;3.13;2.10;;;22.00;1.00;;;;;;5072823;28;20806;-88
2023/07/26 10:44:29;;;;;;;2.33;1.70;;;21.80;1.00;;;;;;5088657;28;20463;-89
2023/07/26 10:47:29;;;;;;;5.33;1.73;;;22.00;1.00;;;;;;5066081;28;20440;-88
2023/07/26 10:50:29;;;;;;;2.27;2.00;;;22.10;1.00;;;;;;5068482;28;20440;-88
2023/07/26 10:53:30;;;;;;;4.20;2.07;;;21.90;1.00;;;;;;5064264;28;20483;-89
2023/07/26 10:56:22;;;;;;;10.80;2.00;;;22.00;1.00;;;;;;5073695;28;20428;-90
2023/07/26 10:59:02;;;;;;;2.43;1.90;;;22.70;1.00;;;;;;5060466;28;20518;-89
2023/07/26 11:05:15;;;;;;;5.17;2.33;;;22.90;1.00;;;;;;5090241;28;20401;-88
2023/07/26 11:10:59;;;;;;;2.47;2.30;;;;;;;;;;5074052;28;20506;-88
2023/07/26 11:13:29;;;;;;;5.43;1.53;;;22.90;1.00;;;;;;5065720;28;20435;-88
2023/07/26 11:16:01;;;;;;;3.70;2.40;;;23.00;1.00;;;;;;5061081;28;20594;-87
2023/07/26 11:18:30;;;;;;;3.67;2.17;;;;;;;;;;5069796;28;20428;-89
2023/07/26 11:20:59;;;;;;;5.33;2.30;;;;;;;;;;5072714;28;20395;-87
2023/07/26 11:23:29;;;;;;;6.10;2.77;;;;;;;;;;5069684;28;20932;-88
2023/07/26 11:26:00;;;;;;;2.20;2.00;;;;;;;;;;5070744;28;20391;-88
2023/07/26 11:28:33;;;;;;;2.30;2.10;;;;;;;;;;5056067;28;20464;-87
2023/07/26 11:31:00;;;;;;;4.77;2.17;;;21.90;1.00;;;;;;5072059;28;20458;-88
2023/07/26 11:33:34;;;;;;;7.07;2.33;;;22.30;1.00;;;;;;5066304;28;20410;-88
2023/07/26 11:36:35;;;;;;;3.40;2.70;;;22.60;1.00;;;;;;5073796;28;20458;-88
2023/07/26 11:39:29;;;;;;;2.47;2.13;;;22.60;1.00;;;;;;5057965;28;20551;-87
2023/07/26 11:41:59;;;;;;;2.07;1.97;;;22.30;1.00;;;;;;5073930;28;20413;-87
2023/07/26 11:44:29;;;;;;;3.90;2.10;;;22.10;1.00;;;;;;5080634;28;20491;-88
2023/07/26 11:47:03;;;;;;;4.20;2.10;;;21.50;1.00;;;;;;5075163;28;20921;-88
2023/07/26 11:49:31;;;;;;;2.80;2.10;;;21.40;1.00;;;;;;5071718;28;20531;-88
2023/07/26 11:51:57;;;;;;;5.77;2.80;;;21.10;1.00;;;;;;5076480;28;20484;-87
2023/07/26 11:54:23;;;;;;;6.80;3.07;;;20.90;1.00;;;;;;5076700;28;20427;-88
2023/07/26 11:56:59;;;;;;;6.47;3.27;;;20.40;1.00;;;;;;5088055;28;20176;-88
2023/07/26 11:59:59;;;;;;;5.53;3.10;;;20.30;1.00;;;;;;5082312;28;20187;-87
2023/07/26 12:02:30;;;;;;;10.40;3.03;;;20.50;1.00;;;;;;5069258;28;20959;-87
2023/07/26 12:05:29;;;;;;;6.63;3.10;;;20.60;1.00;;;;;;5076758;28;20847;-87
2023/07/26 12:08:03;;;;;;;3.53;2.77;;;20.80;1.00;;;;;;5067587;28;20921;-86
2023/07/26 12:11:01;;;;;;;5.53;2.60;;;21.10;1.00;;;;;;5080801;28;20462;-88
2023/07/26 12:13:33;;;;;;;3.67;2.60;;;21.70;1.00;;;;;;5092750;28;20432;-89
2023/07/26 12:16:14;;;;;;;4.30;2.10;;;;;;;;;;5067263;28;20952;-88
2023/07/26 12:18:57;;;;;;;3.03;1.90;;;21.30;1.00;;;;;;5076286;28;20415;-90
2023/07/26 12:21:30;;;;;;;1.57;1.37;;;;;;;;;;5070528;28;20960;-89
2023/07/26 12:24:04;;;;;;;1.27;1.17;;;21.50;1.00;;;;;;5058123;28;20441;-89
2023/07/26 12:37:00;;;;;;;1.53;1.10;;;21.60;1.00;;;;;;5072923;28;20489;-92
2023/07/26 12:39:26;;;;;;;1.43;0.97;;;;;;;;;;5069071;28;20424;-89
2023/07/26 12:45:13;;;;;;;1.20;1.00;;;21.90;1.00;;;;;;5066839;28;20422;-90
2023/07/26 12:47:40;;;;;;;1.23;1.13;;;22.10;1.00;;;;;;5074114;28;20837;-91
2023/07/26 12:56:49;;;;;;;1.00;1.00;;;22.60;1.00;;;;;;5066973;28;20427;-88
2023/07/26 13:03:30;;;;;;;0.90;0.90;;;22.50;1.00;;;;;;5056659;28;20190;-87
2023/07/26 13:06:46;;;;;;;6.23;1.10;;;22.60;1.00;;;;;;5073601;28;20429;-87
2023/07/26 13:12:33;;;;;;;6.03;0.87;;;22.60;1.00;;;;;;5068513;28;20457;-92
2023/07/26 13:15:35;;;;;;;1.00;1.00;;;22.80;1.00;;;;;;5075622;28;20418;-96
2023/07/26 13:18:36;;;;;;;2.87;1.23;;;22.80;1.00;;;;;;5075978;28;20179;-89
2023/07/26 13:24:23;;;;;;;1.23;0.97;;;;;;;;;;5062940;28;20421;-87
2023/07/26 13:27:11;;;;;;;1.37;1.27;;;23.80;1.00;;;;;;5068802;28;20421;-87
2023/07/26 13:43:04;;;;;;;1.30;1.20;;;24.20;1.00;;;;;;5070118;28;20493;-86
2023/07/26 13:52:29;;;;;;;2.50;1.17;;;24.60;1.00;;;;;;5072441;28;20969;-92
2023/07/26 14:08:23;;;;;;;1.30;1.20;;;;;;;;;;5074728;28;20442;-87
2023/07/26 14:14:59;;;;;;;1.20;1.10;;;23.70;1.00;;;;;;5064205;28;20837;-92
2023/07/26 14:17:25;;;;;;;1.33;0.90;;;;;;;;;;5074495;28;20450;-92
2023/07/26 14:23:12;;;;;;;2.00;1.30;;;23.10;1.00;;;;;;5070885;28;20404;-87
2023/07/26 14:32:35;;;;;;;1.60;1.50;;;23.00;1.00;;;;;;5067788;28;20951;-87
2023/07/26 14:35:29;;;;;;;1.10;1.10;;;22.60;1.00;;;;;;5063149;28;20418;-91
2023/07/26 14:42:11;;;;;;;5.23;1.47;;;22.30;1.00;;;;;;5074523;28;20400;-86
2023/07/26 14:48:29;;;;;;;1.77;1.23;;;;;;;;;;5056650;28;20371;-88
2023/07/26 14:54:16;;;;;;;5.00;2.20;;;20.70;1.00;;;;;;5054271;28;20411;-87
2023/07/26 14:56:47;;;;;;;2.53;1.60;;;20.40;1.00;;;;;;5070678;28;20498;-86
2023/07/26 15:06:46;;;;;;;1.30;1.20;;;20.30;1.00;;;;;;5065002;28;20409;-87
2023/07/26 15:09:11;;;;;;;1.30;1.20;;;19.80;1.00;;;;;;5062668;28;20433;-87
2023/07/26 15:12:11;;;;;;;1.47;1.10;;;19.40;1.00;;;;;;5060161;28;20768;-91
2023/07/26 15:14:39;;;;;;;1.30;1.00;;;18.80;1.00;;;;;;5046456;28;20195;-91
2023/07/26 15:17:06;;;;;;;1.43;1.00;;;18.80;1.00;;;;;;5046409;28;20445;-90
2023/07/26 15:22:54;;;;;;;0.90;0.90;;;18.10;1.00;;;;;;5053928;28;20379;-90
2023/07/26 15:25:20;;;;;;;1.07;0.97;;;17.90;1.00;;;;;;5046517;28;20405;-90
2023/07/26 15:28:17;;;;;;;1.67;1.10;;;17.90;1.00;;;;;;5043528;28;20245;-90
2023/07/26 15:30:53;;;;;;;1.00;1.00;;;17.80;1.00;;;;;;5047478;28;20535;-87
2023/07/26 15:37:11;;;;;;;1.50;1.20;;;18.00;1.00;;;;;;5034724;28;20431;-94
2023/07/26 15:39:53;;;;;;;2.10;1.27;;;18.10;1.00;;;;;;5052071;28;20425;-91
2023/07/26 15:43:05;;;;;;;1.43;1.07;;;18.40;1.00;;;;;;5041266;28;20483;-88
2023/07/26 15:49:23;;;;;;;8.90;1.87;;;18.80;1.00;;;;;;5053799;28;20418;-93
2023/07/26 15:55:11;;;;;;;2.37;1.40;;;19.20;1.00;;;;;;5050248;28;20889;-85
2023/07/26 16:04:20;;;;;;;4.70;1.47;;;19.50;1.00;;;;;;5045950;28;20390;-87
2023/07/26 16:06:46;;;;;;;2.30;1.43;;;19.50;1.00;;;;;;5048636;28;20426;-90
2023/07/26 16:12:34;;;;;;;1.57;1.00;;;19.80;1.00;;;;;;5036185;28;20461;-87
2023/07/26 16:18:21;;;;;;;3.70;1.23;;;20.50;1.00;;;;;;5050092;28;20212;-89
2023/07/26 16:30:53;;;;;;;1.07;0.97;;;24.60;1.00;;;;;;5045940;28;20509;-89
2023/07/26 16:33:47;;;;;;;2.83;0.80;;;24.30;1.00;;;;;;5054926;28;20437;-90
2023/07/26 16:36:53;;;;;;;1.40;1.10;;;23.90;1.00;;;;;;5041584;28;20221;-89
2023/07/26 16:42:41;;;;;;;3.73;1.00;;;;;;;;;;5043644;28;20431;-89
2023/07/26 16:45:29;;;;;;;1.00;0.90;;;26.50;1.00;;;;;;5051519;28;20449;-89
2023/07/26 16:51:35;;;;;;;1.40;1.03;;;30.50;1.00;;;;;;5056689;28;20482;-90
2023/07/26 16:57:23;;;;;;;1.30;1.13;;;33.40;1.00;;;;;;5048173;28;20490;-91
2023/07/26 16:59:52;;;;;;;0.83;0.83;;;34.70;1.00;;;;;;5043070;28;20533;-88
2023/07/26 17:02:41;;;;;;;0.83;0.80;;;35.60;1.00;;;;;;5055266;28;20434;-87
2023/07/26 17:05:29;;;;;;;0.80;0.70;;;36.70;1.00;;;;;;5041126;28;20442;-88
2023/07/26 17:11:16;;;;;;;1.70;0.90;;;38.30;1.00;;;;;;5056130;28;20484;-88
2023/07/26 17:14:29;;;;;;;1.80;1.03;;;38.00;1.00;;;;;;5049140;28;20458;-87
2023/07/26 17:16:54;;;;;;;2.50;0.80;;;38.10;1.00;;;;;;5047262;28;20209;-91
2023/07/26 17:29:30;;;;;;;0.80;0.80;;;36.60;1.00;;;;;;5042868;28;20468;-90
2023/07/26 17:42:02;;;;;;;4.23;1.23;;;35.00;1.00;;;;;;5056062;28;20479;-90
2023/07/26 17:44:47;;;;;;;2.60;1.27;;;35.00;1.00;;;;;;5043521;28;20482;-90
2023/07/26 17:47:35;;;;;;;1.40;1.20;;;34.20;1.00;;;;;;5039892;28;20184;-88
2023/07/26 17:53:23;;;;;;;3.57;1.37;;;31.40;1.00;;;;;;5051419;28;20773;-92
2023/07/26 17:59:37;;;;;;;7.97;1.60;;;27.40;1.00;;;;;;5043066;28;20199;-86
2023/07/26 18:05:56;;;;;;;3.67;1.27;;;25.50;1.00;;;;;;5055380;28;20928;-93
2023/07/26 18:08:23;;;;;;;6.10;1.40;;;25.40;1.00;;;;;;5047634;28;20433;-92
2023/07/26 18:14:11;;;;;;;2.63;1.60;;;24.20;1.00;;;;;;5055478;28;20421;-90
2023/07/26 18:16:47;;;;;;;3.60;1.60;;;23.50;1.00;;;;;;5054807;28;20827;-94
2023/07/26 18:23:23;;;;;;;2.50;1.33;;;22.40;1.00;;;;;;5044965;28;20432;-92
2023/07/26 18:29:29;;;;;;;4.40;1.63;;;21.40;1.00;;;;;;5049416;28;20892;-92
2023/07/26 18:35:24;;;;;;;4.20;1.83;;;20.10;1.00;;;;;;5049068;28;20978;-86
2023/07/26 18:38:06;;;;;;;3.33;1.37;;;20.00;1.00;;;;;;5050517;28;20428;-89
2023/07/26 18:41:11;;;;;;;4.20;1.73;;;19.80;1.00;;;;;;5041420;28;20422;-89
2023/07/26 18:47:00;;;;;;;4.90;1.50;;;;;;;;;;5054968;28;20409;-88
2023/07/26 18:53:17;;;;;;;2.40;1.50;;;18.80;1.00;;;;;;5046798;28;20424;-91
2023/07/26 18:56:05;;;;;;;4.47;2.03;;;18.70;1.00;;;;;;5048966;28;20944;-87
2023/07/26 18:58:31;;;;;;;10.50;1.87;;;18.70;1.00;;;;;;5048321;28;20418;-87
2023/07/26 19:01:17;;;;;;;3.20;1.50;;;18.60;1.00;;;;;;5045100;28;20472;-87
2023/07/26 19:03:53;;;;;;;3.60;1.90;;;18.50;1.00;;;;;;5041705;28;20175;-87
2023/07/26 19:06:46;;;;;;;2.53;2.00;;;18.50;1.00;;;;;;5036522;28;20428;-87
2023/07/26 19:09:12;;;;;;;3.87;1.93;;;18.30;1.00;;;;;;5046840;28;20441;-86